Catàleg de serveis del Meteocat
Campanya meteocatpedra

Dades de l'estació automàtica Santa Coloma de Queralt

?
?
Resum diari 22:30 TU
Dades diàries de l'estació meteorològica
Temperatura mitjana 6.3 °C
Temperatura màxima 8.8 °C 14:26 TU
Temperatura mínima 3.4 °C 22:55 TU
Humitat relativa mitjana 82%
Precipitació acumulada 1.7 mm
Ratxa màxima del vent (6 m) 33.1 km/h - 285º 1:13 TU
Irradiació solar global 6.4 MJ/m2

El tram horari està expressat en Temps Universal (TU). Cal sumar una hora en horari d'hivern i dues en horari d'estiu per passar a l'hora oficial.

Santa Coloma de Queralt

Metadades estació meteorol´gica
Municipi Santa Coloma de Queralt
Comarca Conca de Barberà
Altitud 709 m
Data alta 19.11.1996
Estat actual Operativa
Dades de període
Període
TU
TM
°C
TX
°C
TN
°C
HRM
%
PPT
mm
VVM (6 m)
km/h
DVM (6 m)
graus
VVX (6 m)
km/h
RS
W/m2
00:00 - 00:30 5.9 6.0 5.8 82 0.0 16.6 279 29.5 0
00:30 - 01:00 5.7 5.9 5.5 83 0.0 18.4 280 29.5 0
01:00 - 01:30 5.5 5.7 5.4 84 0.0 20.2 281 33.1 0
01:30 - 02:00 5.5 5.5 5.4 83 0.0 17.3 283 29.5 0
02:00 - 02:30 5.3 5.5 5.2 84 0.0 15.1 284 24.1 0
02:30 - 03:00 5.2 5.3 5.2 85 0.0 13.7 271 20.5 0
03:00 - 03:30 5.4 5.6 5.1 85 0.0 11.5 269 20.2 0
03:30 - 04:00 5.6 5.7 5.4 84 0.0 8.3 285 17.6 0
04:00 - 04:30 5.8 6.0 5.2 83 0.0 5.0 255 14.8 0
04:30 - 05:00 5.0 5.4 4.7 88 0.0 3.6 8 9.0 0
05:00 - 05:30 5.8 6.0 5.5 84 0.0 5.0 324 8.3 0
05:30 - 06:00 6.1 6.2 5.6 82 0.0 4.3 307 9.7 0
06:00 - 06:30 5.4 5.6 5.3 87 0.0 2.9 260 5.0 0
06:30 - 07:00 5.2 5.4 5.1 89 0.1 1.8 4 5.4 1
07:00 - 07:30 5.0 5.1 4.8 93 0.5 2.2 49 4.7 4
07:30 - 08:00 4.8 4.8 4.7 94 0.7 0.4 68 2.5 15
08:00 - 08:30 4.8 4.9 4.8 96 0.3 1.8 124 4.7 40
08:30 - 09:00 5.2 5.6 4.9 95 0.1 1.8 59 4.3 100
09:00 - 09:30 6.1 6.6 5.8 92 0.0 2.5 331 11.5 124
09:30 - 10:00 6.5 6.6 6.4 91 0.0 8.6 301 15.5 122
10:00 - 10:30 6.2 6.4 6.1 92 0.0 8.6 297 15.1 93
10:30 - 11:00 6.1 6.3 6.0 93 0.0 7.6 299 15.1 111
11:00 - 11:30 6.6 7.0 6.2 90 0.0 6.5 320 13.7 259
11:30 - 12:00 7.4 7.6 7.1 86 0.0 6.8 309 13.0 349
12:00 - 12:30 7.3 7.6 7.0 85 0.0 8.6 311 16.9 359
12:30 - 13:00 8.1 8.3 7.7 82 0.0 10.1 299 19.4 410
13:00 - 13:30 8.0 8.2 7.8 81 0.0 14.8 279 23.8 316
13:30 - 14:00 8.3 8.6 8.1 79 0.0 11.5 287 20.2 396
14:00 - 14:30 8.5 8.8 8.3 76 0.0 14.4 283 22.7 322
14:30 - 15:00 8.4 8.8 8.1 78 0.0 15.5 275 24.1 256
15:00 - 15:30 8.2 8.5 8.1 78 0.0 15.1 276 25.2 175
15:30 - 16:00 8.4 8.6 8.1 75 0.0 13.0 288 23.0 95
16:00 - 16:30 7.9 8.2 7.6 82 0.0 15.8 276 26.3 26
16:30 - 17:00 7.7 7.8 7.5 85 0.0 19.4 280 30.6 0
17:00 - 17:30 7.8 7.9 7.6 77 0.0 19.1 277 30.2 0
17:30 - 18:00 7.7 7.9 7.6 72 0.0 19.4 276 28.8 0
18:00 - 18:30 7.3 7.5 7.1 71 0.0 20.9 272 31.7 0
18:30 - 19:00 6.9 7.1 6.5 70 0.0 20.5 277 32.0 0
19:00 - 19:30 6.5 6.7 6.4 70 0.0 20.5 273 31.7 0
19:30 - 20:00 6.5 6.6 6.5 69 0.0 19.1 275 29.9 0
20:00 - 20:30 6.4 6.7 6.0 68 0.0 13.0 283 22.7 0
20:30 - 21:00 5.7 6.1 5.5 70 0.0 9.7 265 15.1 0
21:00 - 21:30 5.1 5.6 4.7 72 0.0 7.6 268 15.1 0
21:30 - 22:00 4.0 4.6 3.6 78 0.0 6.5 267 10.8 0
22:00 - 22:30 3.8 4.3 3.4 78 0.0 6.5 270 10.1 0
22:30 - 23:00 3.7 4.1 3.4 79 0.0 2.5 258 6.5 0

Les dades en taronja només han passat un control de qualitat automàtic. Resta pendent la seva validació definitiva.